Terminal Aerodrome Forecast
Issued by NWS

Home | Current Version | Previous Version | Graphics & Text | Print | Product List | Glossary On
Versions: 1 2 3 4 5 6 7 8 9 10 11 12
000
FTUS43 KMPX 191122
TAFAXN
TAF
KAXN 191122Z 1912/2012 35008KT P6SM FEW020
     FM191800 34007KT P6SM SCT040 SCT250
     FM200500 36003KT P6SM BKN250=

USA.gov is the U.S. government's official web portal to all federal, state and local government web resources and services.